ADDS METAR Data INFO
IDs: Format: Raw Decoded Include TAF

Data at: 0306 UTC 17 Jan 2018

KBHB 170256Z AUTO 33003KT 10SM SCT075 OVC090 M08/M11 A3047 RMK AO2 SLP323 6//// T10831106 58003 FZRANO PNO $
KBHB 170156Z AUTO 00000KT 10SM BKN080 BKN100 OVC120 M08/M11 A3048 RMK AO2 SLP325 T10831106 FZRANO PNO $
KBHB 170056Z AUTO 00000KT 10SM CLR M08/M11 A3049 RMK AO2 SLP328 T10831111 FZRANO PNO $
KBHB 162356Z AUTO 00000KT 10SM CLR M08/M11 A3048 RMK AO2 SLP326 6//// T10781106 11022 21078 410221106 51005 FZRANO PNO $
KBHB 162156Z AUTO 00000KT 10SM CLR M06/M11 A3047 RMK AO2 SLP322 T10561111 FZRANO PNO $
KBHB 162056Z AUTO 23005KT 10SM OVC060 M04/M10 A3047 RMK AO2 SLP321 6//// T10391100 50002 FZRANO PNO $
KBHB 161956Z AUTO 21007KT 10SM FEW065 M03/M10 A3047 RMK AO2 SLP323 T10331100 FZRANO PNO $
KBHB 161856Z AUTO VRB04KT 10SM CLR M03/M10 A3046 RMK AO2 SLP320 T10281100 FZRANO PNO $
KBHB 161756Z AUTO 31005KT 10SM CLR M03/M11 A3046 RMK AO2 SLP320 6//// T10331106 11028 21100 58021 FZRANO PNO $
KBHB 161656Z AUTO 26007KT 10SM CLR M04/M11 A3048 RMK AO2 SLP327 T10441111 FZRANO PNO $
KBHB 161556Z AUTO 00000KT 10SM CLR M05/M12 A3050 RMK AO2 SLP333 T10501117 FZRANO PNO $
KBHB 161456Z AUTO VRB03KT 10SM OVC029 M08/M12 A3052 RMK AO2 SLP341 6//// T10781122 51005 FZRANO PNO $
KBHB 161356Z AUTO VRB03KT 10SM OVC029 M09/M13 A3052 RMK AO2 SLP339 T10891128 FZRANO PNO $
KBHB 161256Z AUTO 34004KT 10SM OVC029 M10/M13 A3052 RMK AO2 SLP338 T11001133 FZRANO PNO $
KBHB 161156Z AUTO 36005KT 10SM OVC029 M10/M13 A3051 RMK AO2 SLP336 6//// 7//// T11001133 11094 21100 53005 FZRANO PNO $
KBHB 161056Z AUTO 36006KT 10SM OVC029 M10/M13 A3049 RMK AO2 SLP330 T11001133 FZRANO PNO $
KBHB 160956Z AUTO 01008KT 10SM OVC029 M10/M13 A3048 RMK AO2 SNE37 SLP325 T11001133 FZRANO PNO $
KBHB 160856Z AUTO 36010KT 9SM -SN OVC029 M10/M13 A3049 RMK AO2 SLP330 6//// T11001128 57012 FZRANO PNO $
KBHB 160756Z AUTO 36008KT 9SM -SN OVC029 M10/M13 A3051 RMK AO2 SLP337 T11001128 FZRANO PNO $
KBHB 160656Z AUTO 36010KT 9SM -SN OVC018 M10/M13 A3051 RMK AO2 SNB17 SLP335 T11001128 FZRANO PNO $
KBHB 160556Z AUTO 01010G16KT 10SM OVC018 M10/M13 A3053 RMK AO2 SNE48 SLP342 6//// T11001128 11089 21100 58008 FZRANO PNO $
KBHB 160456Z AUTO 35012G18KT 9SM -SN OVC018 M09/M13 A3055 RMK AO2 SLP349 T10941128 FZRANO PNO $
KBHB 160356Z AUTO 36011G18KT 9SM -SN OVC018 M09/M12 A3057 RMK AO2 SLP355 T10941122 FZRANO PNO $
KBHB 160256Z AUTO 36012G17KT 9SM -SN OVC018 M09/M12 A3055 RMK AO2 SLP350 6//// T10941122 56019 FZRANO PNO $
KBHB 160056Z AUTO 36011KT 9SM -SN OVC018 M09/M12 A3059 RMK AO2 SLP363 T10891117 FZRANO PNO $
KBHB 152356Z AUTO 02011G19KT 9SM -SN OVC020 M09/M12 A3061 RMK AO2 SLP369 6//// T10891117 11089 21111 410891178 58016 FZRANO PNO $
KBHB 152256Z AUTO 36012G17KT 9SM -SN OVC020 M09/M12 A3063 RMK AO2 SLP376 T10891117 FZRANO PNO $
KBHB 152156Z AUTO 36011G19KT 9SM -SN OVC022 M09/M12 A3065 RMK AO2 SNB00 SLP382 T10891122 FZRANO PNO $
KBHB 152056Z AUTO 01014KT 10SM OVC022 M09/M12 A3066 RMK AO2 SLP385 6//// T10891122 55015 FZRANO PNO $
KBHB 151956Z AUTO 02015KT 10SM OVC020 M09/M12 A3064 RMK AO2 SLP381 T10891122 FZRANO PNO $
KBHB 151856Z AUTO 36008G14KT 10SM OVC016 M10/M14 A3067 RMK AO2 SLP390 T11001139 FZRANO PNO $
KBHB 151756Z AUTO 36008KT 10SM OVC016 M11/M14 A3070 RMK AO2 SLP400 6//// T11111144 11111 21178 56027 FZRANO PNO $
KBHB 151656Z AUTO VRB06KT 10SM OVC016 M12/M17 A3074 RMK AO2 SLP413 T11221167 FZRANO PNO $
KBHB 151556Z AUTO 34009KT 10SM OVC012 M14/M18 A3078 RMK AO2 SNB05E17 SLP428 T11391178 FZRANO PNO $